sensor_id;sensor_type;location;lat;lon;timestamp;temperature;humidity
66726;HTU21D;53638;51.062;5.804;2023-06-14T00:00:43;22.21;51.34
66726;HTU21D;53638;51.062;5.804;2023-06-14T00:03:10;22.11;50.59
66726;HTU21D;53638;51.062;5.804;2023-06-14T00:05:37;22.05;50.70
66726;HTU21D;53638;51.062;5.804;2023-06-14T00:08:10;22.02;50.62
66726;HTU21D;53638;51.062;5.804;2023-06-14T00:10:37;22.02;50.68
66726;HTU21D;53638;51.062;5.804;2023-06-14T00:13:03;21.97;52.55
66726;HTU21D;53638;51.062;5.804;2023-06-14T00:15:31;21.93;51.72
66726;HTU21D;53638;51.062;5.804;2023-06-14T00:17:57;21.89;51.23
66726;HTU21D;53638;51.062;5.804;2023-06-14T00:20:27;21.82;51.13
66726;HTU21D;53638;51.062;5.804;2023-06-14T00:22:54;21.78;51.67
66726;HTU21D;53638;51.062;5.804;2023-06-14T00:25:23;21.65;53.20
66726;HTU21D;53638;51.062;5.804;2023-06-14T00:27:56;21.62;50.72
66726;HTU21D;53638;51.062;5.804;2023-06-14T00:30:23;21.61;51.59
66726;HTU21D;53638;51.062;5.804;2023-06-14T00:32:49;21.58;51.11
66726;HTU21D;53638;51.062;5.804;2023-06-14T00:35:17;21.57;51.77
66726;HTU21D;53638;51.062;5.804;2023-06-14T00:37:43;21.52;50.66
66726;HTU21D;53638;51.062;5.804;2023-06-14T00:40:09;21.42;49.89
66726;HTU21D;53638;51.062;5.804;2023-06-14T00:42:35;21.27;49.56
66726;HTU21D;53638;51.062;5.804;2023-06-14T00:45:01;21.21;50.69
66726;HTU21D;53638;51.062;5.804;2023-06-14T00:47:27;21.11;53.12
66726;HTU21D;53638;51.062;5.804;2023-06-14T00:49:53;21.03;51.82
66726;HTU21D;53638;51.062;5.804;2023-06-14T00:52:21;21.00;53.78
66726;HTU21D;53638;51.062;5.804;2023-06-14T00:54:48;20.96;54.36
66726;HTU21D;53638;51.062;5.804;2023-06-14T00:57:14;21.01;53.33
66726;HTU21D;53638;51.062;5.804;2023-06-14T00:59:46;21.02;52.11
66726;HTU21D;53638;51.062;5.804;2023-06-14T01:02:13;20.96;52.14
66726;HTU21D;53638;51.062;5.804;2023-06-14T01:04:43;20.89;55.00
66726;HTU21D;53638;51.062;5.804;2023-06-14T01:10:03;20.78;52.74
66726;HTU21D;53638;51.062;5.804;2023-06-14T01:15:01;20.69;55.53
66726;HTU21D;53638;51.062;5.804;2023-06-14T01:17:29;20.71;54.83
66726;HTU21D;53638;51.062;5.804;2023-06-14T01:19:59;20.72;53.02
66726;HTU21D;53638;51.062;5.804;2023-06-14T01:22:26;20.62;53.29
66726;HTU21D;53638;51.062;5.804;2023-06-14T01:24:55;20.55;56.34
66726;HTU21D;53638;51.062;5.804;2023-06-14T01:27:25;20.51;55.95
66726;HTU21D;53638;51.062;5.804;2023-06-14T01:29:55;20.45;55.45
66726;HTU21D;53638;51.062;5.804;2023-06-14T01:32:26;20.41;56.60
66726;HTU21D;53638;51.062;5.804;2023-06-14T01:34:54;20.37;54.64
66726;HTU21D;53638;51.062;5.804;2023-06-14T01:37:21;20.34;53.65
66726;HTU21D;53638;51.062;5.804;2023-06-14T01:39:48;20.27;53.72
66726;HTU21D;53638;51.062;5.804;2023-06-14T01:42:19;20.18;54.23
66726;HTU21D;53638;51.062;5.804;2023-06-14T01:44:47;20.10;55.86
66726;HTU21D;53638;51.062;5.804;2023-06-14T01:47:14;20.07;56.52
66726;HTU21D;53638;51.062;5.804;2023-06-14T01:49:40;20.06;57.79
66726;HTU21D;53638;51.062;5.804;2023-06-14T01:52:07;20.02;58.25
66726;HTU21D;53638;51.062;5.804;2023-06-14T01:54:35;20.04;57.43
66726;HTU21D;53638;51.062;5.804;2023-06-14T01:57:03;20.07;54.98
66726;HTU21D;53638;51.062;5.804;2023-06-14T01:59:29;20.10;54.33
66726;HTU21D;53638;51.062;5.804;2023-06-14T02:01:56;20.11;53.49
66726;HTU21D;53638;51.062;5.804;2023-06-14T02:04:22;20.05;53.39
66726;HTU21D;53638;51.062;5.804;2023-06-14T02:06:48;19.99;54.97
66726;HTU21D;53638;51.062;5.804;2023-06-14T02:09:14;19.95;55.16
66726;HTU21D;53638;51.062;5.804;2023-06-14T02:11:40;19.92;55.93
66726;HTU21D;53638;51.062;5.804;2023-06-14T02:14:05;19.85;55.51
66726;HTU21D;53638;51.062;5.804;2023-06-14T02:16:33;19.70;56.58
66726;HTU21D;53638;51.062;5.804;2023-06-14T02:19:01;19.58;55.73
66726;HTU21D;53638;51.062;5.804;2023-06-14T02:21:27;19.47;56.30
66726;HTU21D;53638;51.062;5.804;2023-06-14T02:23:53;19.44;55.94
66726;HTU21D;53638;51.062;5.804;2023-06-14T02:26:20;19.44;55.84
66726;HTU21D;53638;51.062;5.804;2023-06-14T02:28:46;19.37;58.47
66726;HTU21D;53638;51.062;5.804;2023-06-14T02:31:11;19.33;57.97
66726;HTU21D;53638;51.062;5.804;2023-06-14T02:33:38;19.28;60.35
66726;HTU21D;53638;51.062;5.804;2023-06-14T02:36:04;19.31;60.24
66726;HTU21D;53638;51.062;5.804;2023-06-14T02:38:30;19.29;59.34
66726;HTU21D;53638;51.062;5.804;2023-06-14T02:40:56;19.21;60.06
66726;HTU21D;53638;51.062;5.804;2023-06-14T02:43:22;19.17;59.94
66726;HTU21D;53638;51.062;5.804;2023-06-14T02:45:48;19.15;59.94
66726;HTU21D;53638;51.062;5.804;2023-06-14T02:48:13;19.09;60.30
66726;HTU21D;53638;51.062;5.804;2023-06-14T02:50:40;19.01;62.11
66726;HTU21D;53638;51.062;5.804;2023-06-14T02:53:06;18.95;61.79
66726;HTU21D;53638;51.062;5.804;2023-06-14T02:55:32;18.91;61.41
66726;HTU21D;53638;51.062;5.804;2023-06-14T02:57:58;18.91;60.66
66726;HTU21D;53638;51.062;5.804;2023-06-14T03:00:25;18.89;60.75
66726;HTU21D;53638;51.062;5.804;2023-06-14T03:02:52;18.85;62.90
66726;HTU21D;53638;51.062;5.804;2023-06-14T03:05:20;18.77;62.41
66726;HTU21D;53638;51.062;5.804;2023-06-14T03:07:48;18.73;61.89
66726;HTU21D;53638;51.062;5.804;2023-06-14T03:10:16;18.74;63.93
66726;HTU21D;53638;51.062;5.804;2023-06-14T03:12:43;18.71;63.79
66726;HTU21D;53638;51.062;5.804;2023-06-14T03:15:10;18.68;64.52
66726;HTU21D;53638;51.062;5.804;2023-06-14T03:17:41;18.58;63.75
66726;HTU21D;53638;51.062;5.804;2023-06-14T03:20:11;18.55;63.97
66726;HTU21D;53638;51.062;5.804;2023-06-14T03:22:37;18.55;64.34
66726;HTU21D;53638;51.062;5.804;2023-06-14T03:25:03;18.54;63.95
66726;HTU21D;53638;51.062;5.804;2023-06-14T03:27:32;18.57;65.01
66726;HTU21D;53638;51.062;5.804;2023-06-14T03:29:58;18.61;63.99
66726;HTU21D;53638;51.062;5.804;2023-06-14T03:32:24;18.63;65.40
66726;HTU21D;53638;51.062;5.804;2023-06-14T03:34:50;18.65;66.60
66726;HTU21D;53638;51.062;5.804;2023-06-14T03:37:20;18.70;67.98
66726;HTU21D;53638;51.062;5.804;2023-06-14T03:39:47;18.74;69.07
66726;HTU21D;53638;51.062;5.804;2023-06-14T03:42:17;18.76;68.55
66726;HTU21D;53638;51.062;5.804;2023-06-14T03:44:44;18.69;68.36
66726;HTU21D;53638;51.062;5.804;2023-06-14T03:47:10;18.66;69.29
66726;HTU21D;53638;51.062;5.804;2023-06-14T03:49:36;18.70;69.88
66726;HTU21D;53638;51.062;5.804;2023-06-14T03:52:03;18.68;68.21
66726;HTU21D;53638;51.062;5.804;2023-06-14T03:54:30;18.65;68.58
66726;HTU21D;53638;51.062;5.804;2023-06-14T03:56:58;18.66;69.09
66726;HTU21D;53638;51.062;5.804;2023-06-14T03:59:25;18.67;68.87
66726;HTU21D;53638;51.062;5.804;2023-06-14T04:01:52;18.72;69.84
66726;HTU21D;53638;51.062;5.804;2023-06-14T04:04:19;18.78;69.71
66726;HTU21D;53638;51.062;5.804;2023-06-14T04:06:46;18.83;70.58
66726;HTU21D;53638;51.062;5.804;2023-06-14T04:09:14;18.84;69.00
66726;HTU21D;53638;51.062;5.804;2023-06-14T04:11:41;18.78;68.28
66726;HTU21D;53638;51.062;5.804;2023-06-14T04:14:07;18.67;67.14
66726;HTU21D;53638;51.062;5.804;2023-06-14T04:16:33;18.59;65.81
66726;HTU21D;53638;51.062;5.804;2023-06-14T04:19:00;18.57;65.18
66726;HTU21D;53638;51.062;5.804;2023-06-14T04:21:26;18.58;67.21
66726;HTU21D;53638;51.062;5.804;2023-06-14T04:23:55;18.62;66.25
66726;HTU21D;53638;51.062;5.804;2023-06-14T04:26:24;18.62;66.06
66726;HTU21D;53638;51.062;5.804;2023-06-14T04:28:56;18.66;66.01
66726;HTU21D;53638;51.062;5.804;2023-06-14T04:31:29;18.71;67.11
66726;HTU21D;53638;51.062;5.804;2023-06-14T04:34:00;18.74;65.99
66726;HTU21D;53638;51.062;5.804;2023-06-14T04:36:25;18.78;64.84
66726;HTU21D;53638;51.062;5.804;2023-06-14T04:38:53;18.80;65.51
66726;HTU21D;53638;51.062;5.804;2023-06-14T04:41:21;18.85;65.70
66726;HTU21D;53638;51.062;5.804;2023-06-14T04:43:49;18.86;66.07
66726;HTU21D;53638;51.062;5.804;2023-06-14T04:46:16;18.89;66.06
66726;HTU21D;53638;51.062;5.804;2023-06-14T04:48:43;18.92;66.89
66726;HTU21D;53638;51.062;5.804;2023-06-14T04:51:10;18.97;67.52
66726;HTU21D;53638;51.062;5.804;2023-06-14T04:53:36;19.01;67.01
66726;HTU21D;53638;51.062;5.804;2023-06-14T04:56:03;19.00;67.03
66726;HTU21D;53638;51.062;5.804;2023-06-14T04:58:31;19.06;67.68
66726;HTU21D;53638;51.062;5.804;2023-06-14T05:00:57;19.09;67.58
66726;HTU21D;53638;51.062;5.804;2023-06-14T05:03:25;19.12;67.81
66726;HTU21D;53638;51.062;5.804;2023-06-14T05:05:52;19.14;68.01
66726;HTU21D;53638;51.062;5.804;2023-06-14T05:08:20;19.21;68.01
66726;HTU21D;53638;51.062;5.804;2023-06-14T05:10:49;19.25;67.68
66726;HTU21D;53638;51.062;5.804;2023-06-14T05:13:16;19.30;67.22
66726;HTU21D;53638;51.062;5.804;2023-06-14T05:15:44;19.33;67.78
66726;HTU21D;53638;51.062;5.804;2023-06-14T05:18:10;19.35;67.59
66726;HTU21D;53638;51.062;5.804;2023-06-14T05:20:36;19.38;67.49
66726;HTU21D;53638;51.062;5.804;2023-06-14T05:23:03;19.43;67.34
66726;HTU21D;53638;51.062;5.804;2023-06-14T05:25:29;19.48;67.49
66726;HTU21D;53638;51.062;5.804;2023-06-14T05:27:55;19.53;67.54
66726;HTU21D;53638;51.062;5.804;2023-06-14T05:30:20;19.57;67.35
66726;HTU21D;53638;51.062;5.804;2023-06-14T05:32:46;19.60;67.36
66726;HTU21D;53638;51.062;5.804;2023-06-14T05:35:12;19.63;67.27
66726;HTU21D;53638;51.062;5.804;2023-06-14T05:37:38;19.68;67.17
66726;HTU21D;53638;51.062;5.804;2023-06-14T05:40:05;19.71;67.01
66726;HTU21D;53638;51.062;5.804;2023-06-14T05:42:32;19.71;66.98
66726;HTU21D;53638;51.062;5.804;2023-06-14T05:44:58;19.73;67.09
66726;HTU21D;53638;51.062;5.804;2023-06-14T05:47:24;19.79;67.33
66726;HTU21D;53638;51.062;5.804;2023-06-14T05:49:52;19.83;66.98
66726;HTU21D;53638;51.062;5.804;2023-06-14T05:52:18;19.83;66.78
66726;HTU21D;53638;51.062;5.804;2023-06-14T05:54:44;19.89;66.88
66726;HTU21D;53638;51.062;5.804;2023-06-14T05:57:10;19.94;67.08
66726;HTU21D;53638;51.062;5.804;2023-06-14T05:59:36;20.01;66.90
66726;HTU21D;53638;51.062;5.804;2023-06-14T06:02:02;20.05;66.85
66726;HTU21D;53638;51.062;5.804;2023-06-14T06:04:28;20.05;66.34
66726;HTU21D;53638;51.062;5.804;2023-06-14T06:06:54;20.06;66.37
66726;HTU21D;53638;51.062;5.804;2023-06-14T06:09:20;20.09;66.42
66726;HTU21D;53638;51.062;5.804;2023-06-14T06:11:46;20.13;66.53
66726;HTU21D;53638;51.062;5.804;2023-06-14T06:14:11;20.19;66.41
66726;HTU21D;53638;51.062;5.804;2023-06-14T06:16:37;20.25;66.62
66726;HTU21D;53638;51.062;5.804;2023-06-14T06:19:03;20.32;66.46
66726;HTU21D;53638;51.062;5.804;2023-06-14T06:21:29;20.35;66.61
66726;HTU21D;53638;51.062;5.804;2023-06-14T06:23:55;20.41;66.20
66726;HTU21D;53638;51.062;5.804;2023-06-14T06:26:22;20.45;65.84
66726;HTU21D;53638;51.062;5.804;2023-06-14T06:28:48;20.48;65.68
66726;HTU21D;53638;51.062;5.804;2023-06-14T06:31:14;20.50;65.62
66726;HTU21D;53638;51.062;5.804;2023-06-14T06:33:40;20.56;65.69
66726;HTU21D;53638;51.062;5.804;2023-06-14T06:36:06;20.62;66.04
66726;HTU21D;53638;51.062;5.804;2023-06-14T06:38:32;20.71;65.93
66726;HTU21D;53638;51.062;5.804;2023-06-14T06:40:58;20.77;65.64
66726;HTU21D;53638;51.062;5.804;2023-06-14T06:43:24;20.85;65.65
66726;HTU21D;53638;51.062;5.804;2023-06-14T06:45:49;20.89;65.22
66726;HTU21D;53638;51.062;5.804;2023-06-14T06:48:15;20.95;64.79
66726;HTU21D;53638;51.062;5.804;2023-06-14T06:50:42;21.03;64.51
66726;HTU21D;53638;51.062;5.804;2023-06-14T06:53:08;21.08;64.25
66726;HTU21D;53638;51.062;5.804;2023-06-14T06:55:34;21.15;64.04
66726;HTU21D;53638;51.062;5.804;2023-06-14T06:58:00;21.22;63.54
66726;HTU21D;53638;51.062;5.804;2023-06-14T07:00:26;21.24;63.56
66726;HTU21D;53638;51.062;5.804;2023-06-14T07:02:52;21.34;62.28
66726;HTU21D;53638;51.062;5.804;2023-06-14T07:05:20;21.40;62.16
66726;HTU21D;53638;51.062;5.804;2023-06-14T07:07:46;21.48;61.93
66726;HTU21D;53638;51.062;5.804;2023-06-14T07:10:12;21.51;61.60
66726;HTU21D;53638;51.062;5.804;2023-06-14T07:12:38;21.58;61.12
66726;HTU21D;53638;51.062;5.804;2023-06-14T07:15:08;21.63;60.57
66726;HTU21D;53638;51.062;5.804;2023-06-14T07:17:35;21.66;60.49
66726;HTU21D;53638;51.062;5.804;2023-06-14T07:20:02;21.70;60.73
66726;HTU21D;53638;51.062;5.804;2023-06-14T07:22:33;21.74;60.87
66726;HTU21D;53638;51.062;5.804;2023-06-14T07:24:59;21.82;60.00
66726;HTU21D;53638;51.062;5.804;2023-06-14T07:27:24;21.88;59.96
66726;HTU21D;53638;51.062;5.804;2023-06-14T07:29:50;21.95;59.98
66726;HTU21D;53638;51.062;5.804;2023-06-14T07:32:16;22.03;59.73
66726;HTU21D;53638;51.062;5.804;2023-06-14T07:34:42;22.06;58.83
66726;HTU21D;53638;51.062;5.804;2023-06-14T07:37:08;22.10;58.55
66726;HTU21D;53638;51.062;5.804;2023-06-14T07:39:34;22.11;58.58
66726;HTU21D;53638;51.062;5.804;2023-06-14T07:41:59;22.13;58.77
66726;HTU21D;53638;51.062;5.804;2023-06-14T07:44:29;22.20;58.03
66726;HTU21D;53638;51.062;5.804;2023-06-14T07:46:56;22.23;57.86
66726;HTU21D;53638;51.062;5.804;2023-06-14T07:49:23;22.24;57.46
66726;HTU21D;53638;51.062;5.804;2023-06-14T07:51:49;22.28;57.39
66726;HTU21D;53638;51.062;5.804;2023-06-14T07:54:16;22.32;57.86
66726;HTU21D;53638;51.062;5.804;2023-06-14T07:56:43;22.39;57.59
66726;HTU21D;53638;51.062;5.804;2023-06-14T07:59:08;22.47;57.45
66726;HTU21D;53638;51.062;5.804;2023-06-14T08:01:35;22.50;57.82
66726;HTU21D;53638;51.062;5.804;2023-06-14T08:04:01;22.54;57.87
66726;HTU21D;53638;51.062;5.804;2023-06-14T08:06:27;22.57;57.16
66726;HTU21D;53638;51.062;5.804;2023-06-14T08:08:53;22.63;57.16
66726;HTU21D;53638;51.062;5.804;2023-06-14T08:11:19;22.65;56.90
66726;HTU21D;53638;51.062;5.804;2023-06-14T08:13:45;22.70;56.27
66726;HTU21D;53638;51.062;5.804;2023-06-14T08:16:11;22.75;55.88
66726;HTU21D;53638;51.062;5.804;2023-06-14T08:18:36;22.81;55.97
66726;HTU21D;53638;51.062;5.804;2023-06-14T08:21:02;22.86;56.01
66726;HTU21D;53638;51.062;5.804;2023-06-14T08:23:28;22.94;55.97
66726;HTU21D;53638;51.062;5.804;2023-06-14T08:25:54;23.01;55.78
66726;HTU21D;53638;51.062;5.804;2023-06-14T08:28:20;23.11;55.36
66726;HTU21D;53638;51.062;5.804;2023-06-14T08:30:46;23.11;55.47
66726;HTU21D;53638;51.062;5.804;2023-06-14T08:33:12;23.17;55.58
66726;HTU21D;53638;51.062;5.804;2023-06-14T08:35:38;23.26;55.10
66726;HTU21D;53638;51.062;5.804;2023-06-14T08:38:05;23.37;54.89
66726;HTU21D;53638;51.062;5.804;2023-06-14T08:40:31;23.44;54.16
66726;HTU21D;53638;51.062;5.804;2023-06-14T08:42:57;23.50;53.88
66726;HTU21D;53638;51.062;5.804;2023-06-14T08:45:24;23.56;53.45
66726;HTU21D;53638;51.062;5.804;2023-06-14T08:47:51;23.64;53.10
66726;HTU21D;53638;51.062;5.804;2023-06-14T08:50:25;23.67;52.98
66726;HTU21D;53638;51.062;5.804;2023-06-14T08:52:55;23.75;53.28
66726;HTU21D;53638;51.062;5.804;2023-06-14T08:55:23;23.80;53.31
66726;HTU21D;53638;51.062;5.804;2023-06-14T08:57:57;23.84;53.59
66726;HTU21D;53638;51.062;5.804;2023-06-14T09:00:25;23.90;52.63
66726;HTU21D;53638;51.062;5.804;2023-06-14T09:02:51;23.97;51.98
66726;HTU21D;53638;51.062;5.804;2023-06-14T09:05:23;24.02;51.45
66726;HTU21D;53638;51.062;5.804;2023-06-14T09:07:49;24.08;51.33
66726;HTU21D;53638;51.062;5.804;2023-06-14T09:10:16;24.14;51.55
66726;HTU21D;53638;51.062;5.804;2023-06-14T09:12:43;24.19;51.38
66726;HTU21D;53638;51.062;5.804;2023-06-14T09:15:10;24.21;50.68
66726;HTU21D;53638;51.062;5.804;2023-06-14T09:17:37;24.21;50.80
66726;HTU21D;53638;51.062;5.804;2023-06-14T09:20:04;24.28;50.53
66726;HTU21D;53638;51.062;5.804;2023-06-14T09:22:33;24.38;50.50
66726;HTU21D;53638;51.062;5.804;2023-06-14T09:24:59;24.43;50.10
66726;HTU21D;53638;51.062;5.804;2023-06-14T09:27:27;24.45;50.43
66726;HTU21D;53638;51.062;5.804;2023-06-14T09:29:54;24.53;50.39
66726;HTU21D;53638;51.062;5.804;2023-06-14T09:32:21;24.57;50.37
66726;HTU21D;53638;51.062;5.804;2023-06-14T09:34:48;24.68;50.14
66726;HTU21D;53638;51.062;5.804;2023-06-14T09:37:27;24.74;49.85
66726;HTU21D;53638;51.062;5.804;2023-06-14T09:39:53;24.78;49.50
66726;HTU21D;53638;51.062;5.804;2023-06-14T09:42:19;24.84;49.60
66726;HTU21D;53638;51.062;5.804;2023-06-14T09:44:48;24.90;48.18
66726;HTU21D;53638;51.062;5.804;2023-06-14T09:47:15;25.01;47.92
66726;HTU21D;53638;51.062;5.804;2023-06-14T09:49:42;25.07;47.47
66726;HTU21D;53638;51.062;5.804;2023-06-14T09:52:16;25.20;46.55
66726;HTU21D;53638;51.062;5.804;2023-06-14T09:54:44;25.30;45.57
66726;HTU21D;53638;51.062;5.804;2023-06-14T09:57:13;25.38;45.12
66726;HTU21D;53638;51.062;5.804;2023-06-14T09:59:42;25.46;44.81
66726;HTU21D;53638;51.062;5.804;2023-06-14T10:02:18;25.54;44.70
66726;HTU21D;53638;51.062;5.804;2023-06-14T10:04:53;25.69;43.82
66726;HTU21D;53638;51.062;5.804;2023-06-14T10:07:26;25.74;42.74
66726;HTU21D;53638;51.062;5.804;2023-06-14T10:09:53;25.74;42.44
66726;HTU21D;53638;51.062;5.804;2023-06-14T10:12:19;25.76;42.57
66726;HTU21D;53638;51.062;5.804;2023-06-14T10:14:49;25.82;41.97
66726;HTU21D;53638;51.062;5.804;2023-06-14T10:17:26;25.90;42.00
66726;HTU21D;53638;51.062;5.804;2023-06-14T10:20:10;26.04;41.65
66726;HTU21D;53638;51.062;5.804;2023-06-14T10:22:50;26.13;41.37
66726;HTU21D;53638;51.062;5.804;2023-06-14T10:25:28;26.20;41.38
66726;HTU21D;53638;51.062;5.804;2023-06-14T10:28:03;26.31;41.26
66726;HTU21D;53638;51.062;5.804;2023-06-14T10:30:29;26.42;40.29
66726;HTU21D;53638;51.062;5.804;2023-06-14T10:33:04;26.51;40.82
66726;HTU21D;53638;51.062;5.804;2023-06-14T10:35:32;26.58;40.11
66726;HTU21D;53638;51.062;5.804;2023-06-14T10:38:08;26.68;39.89
66726;HTU21D;53638;51.062;5.804;2023-06-14T10:40:36;26.80;39.49
66726;HTU21D;53638;51.062;5.804;2023-06-14T10:43:21;26.91;39.49
66726;HTU21D;53638;51.062;5.804;2023-06-14T10:46:13;27.00;39.06
66726;HTU21D;53638;51.062;5.804;2023-06-14T10:48:42;27.15;39.05
66726;HTU21D;53638;51.062;5.804;2023-06-14T10:51:18;27.28;38.98
66726;HTU21D;53638;51.062;5.804;2023-06-14T10:53:46;27.38;38.27
66726;HTU21D;53638;51.062;5.804;2023-06-14T10:56:33;27.45;38.20
66726;HTU21D;53638;51.062;5.804;2023-06-14T10:59:00;27.59;38.56
66726;HTU21D;53638;51.062;5.804;2023-06-14T11:01:52;27.78;38.59
66726;HTU21D;53638;51.062;5.804;2023-06-14T11:04:39;27.87;38.75
66726;HTU21D;53638;51.062;5.804;2023-06-14T11:07:48;28.01;38.60
66726;HTU21D;53638;51.062;5.804;2023-06-14T11:13:02;28.44;38.07
66726;HTU21D;53638;51.062;5.804;2023-06-14T11:15:29;28.71;38.86
66726;HTU21D;53638;51.062;5.804;2023-06-14T11:17:56;28.98;38.25
66726;HTU21D;53638;51.062;5.804;2023-06-14T11:20:26;29.24;37.27
66726;HTU21D;53638;51.062;5.804;2023-06-14T11:22:53;29.44;37.09
66726;HTU21D;53638;51.062;5.804;2023-06-14T11:25:20;29.76;36.33
66726;HTU21D;53638;51.062;5.804;2023-06-14T11:27:46;31.15;35.31
66726;HTU21D;53638;51.062;5.804;2023-06-14T11:30:14;33.31;32.65
66726;HTU21D;53638;51.062;5.804;2023-06-14T11:32:40;35.37;29.60
66726;HTU21D;53638;51.062;5.804;2023-06-14T11:35:06;36.96;28.02
66726;HTU21D;53638;51.062;5.804;2023-06-14T11:37:33;38.36;26.54
66726;HTU21D;53638;51.062;5.804;2023-06-14T11:40:00;39.53;25.49
66726;HTU21D;53638;51.062;5.804;2023-06-14T11:42:27;40.60;24.50
66726;HTU21D;53638;51.062;5.804;2023-06-14T11:44:54;40.91;24.13
66726;HTU21D;53638;51.062;5.804;2023-06-14T11:47:21;41.05;23.72
66726;HTU21D;53638;51.062;5.804;2023-06-14T11:49:47;41.22;23.79
66726;HTU21D;53638;51.062;5.804;2023-06-14T11:52:14;41.60;23.34
66726;HTU21D;53638;51.062;5.804;2023-06-14T11:54:40;41.55;23.42
66726;HTU21D;53638;51.062;5.804;2023-06-14T11:57:07;41.84;23.37
66726;HTU21D;53638;51.062;5.804;2023-06-14T11:59:40;42.09;23.11
66726;HTU21D;53638;51.062;5.804;2023-06-14T12:02:07;41.86;23.12
66726;HTU21D;53638;51.062;5.804;2023-06-14T12:04:33;41.19;22.69
66726;HTU21D;53638;51.062;5.804;2023-06-14T12:09:41;41.33;23.69
66726;HTU21D;53638;51.062;5.804;2023-06-14T12:12:10;41.57;23.27
66726;HTU21D;53638;51.062;5.804;2023-06-14T12:14:36;41.76;23.43
66726;HTU21D;53638;51.062;5.804;2023-06-14T12:17:06;42.31;23.01
66726;HTU21D;53638;51.062;5.804;2023-06-14T12:19:32;42.87;22.51
66726;HTU21D;53638;51.062;5.804;2023-06-14T12:21:59;43.28;22.30
66726;HTU21D;53638;51.062;5.804;2023-06-14T12:24:28;43.50;21.98
66726;HTU21D;53638;51.062;5.804;2023-06-14T12:26:57;43.47;21.94
66726;HTU21D;53638;51.062;5.804;2023-06-14T12:29:25;43.36;22.03
66726;HTU21D;53638;51.062;5.804;2023-06-14T12:31:51;44.20;21.54
66726;HTU21D;53638;51.062;5.804;2023-06-14T12:34:19;44.51;20.80
66726;HTU21D;53638;51.062;5.804;2023-06-14T12:36:45;44.21;21.06
66726;HTU21D;53638;51.062;5.804;2023-06-14T12:39:12;44.25;20.91
66726;HTU21D;53638;51.062;5.804;2023-06-14T12:41:38;44.86;20.75
66726;HTU21D;53638;51.062;5.804;2023-06-14T12:44:06;45.36;20.26
66726;HTU21D;53638;51.062;5.804;2023-06-14T12:46:33;45.57;19.55
66726;HTU21D;53638;51.062;5.804;2023-06-14T12:48:59;45.18;19.59
66726;HTU21D;53638;51.062;5.804;2023-06-14T12:51:25;45.14;19.51
66726;HTU21D;53638;51.062;5.804;2023-06-14T12:53:51;45.42;18.97
66726;HTU21D;53638;51.062;5.804;2023-06-14T12:56:17;45.54;18.93
66726;HTU21D;53638;51.062;5.804;2023-06-14T12:58:43;45.54;18.95
66726;HTU21D;53638;51.062;5.804;2023-06-14T13:01:09;45.79;18.51
66726;HTU21D;53638;51.062;5.804;2023-06-14T13:03:35;45.94;18.28
66726;HTU21D;53638;51.062;5.804;2023-06-14T13:06:02;46.19;18.13
66726;HTU21D;53638;51.062;5.804;2023-06-14T13:08:29;46.46;18.07
66726;HTU21D;53638;51.062;5.804;2023-06-14T13:10:56;46.55;17.25
66726;HTU21D;53638;51.062;5.804;2023-06-14T13:13:22;46.74;17.85
66726;HTU21D;53638;51.062;5.804;2023-06-14T13:15:49;46.91;17.87
66726;HTU21D;53638;51.062;5.804;2023-06-14T13:18:16;47.40;17.65
66726;HTU21D;53638;51.062;5.804;2023-06-14T13:20:42;47.47;17.80
66726;HTU21D;53638;51.062;5.804;2023-06-14T13:23:09;47.77;17.60
66726;HTU21D;53638;51.062;5.804;2023-06-14T13:25:37;47.79;17.51
66726;HTU21D;53638;51.062;5.804;2023-06-14T13:28:04;47.49;17.93
66726;HTU21D;53638;51.062;5.804;2023-06-14T13:30:31;47.17;18.02
66726;HTU21D;53638;51.062;5.804;2023-06-14T13:32:58;46.83;17.83
66726;HTU21D;53638;51.062;5.804;2023-06-14T13:35:24;47.09;17.69
66726;HTU21D;53638;51.062;5.804;2023-06-14T13:37:51;47.61;17.57
66726;HTU21D;53638;51.062;5.804;2023-06-14T13:40:17;47.85;17.54
66726;HTU21D;53638;51.062;5.804;2023-06-14T13:42:43;47.75;17.38
66726;HTU21D;53638;51.062;5.804;2023-06-14T13:45:11;47.48;17.59
66726;HTU21D;53638;51.062;5.804;2023-06-14T13:47:38;47.52;17.54
66726;HTU21D;53638;51.062;5.804;2023-06-14T13:50:04;47.48;17.42
66726;HTU21D;53638;51.062;5.804;2023-06-14T13:52:30;47.16;17.74
66726;HTU21D;53638;51.062;5.804;2023-06-14T13:54:56;47.65;17.12
66726;HTU21D;53638;51.062;5.804;2023-06-14T13:57:22;48.25;16.80
66726;HTU21D;53638;51.062;5.804;2023-06-14T13:59:48;48.20;16.54
66726;HTU21D;53638;51.062;5.804;2023-06-14T14:02:15;48.10;16.48
66726;HTU21D;53638;51.062;5.804;2023-06-14T14:04:41;48.03;16.66
66726;HTU21D;53638;51.062;5.804;2023-06-14T14:07:07;47.96;16.58
66726;HTU21D;53638;51.062;5.804;2023-06-14T14:09:35;47.95;16.64
66726;HTU21D;53638;51.062;5.804;2023-06-14T14:12:01;47.83;16.40
66726;HTU21D;53638;51.062;5.804;2023-06-14T14:14:28;47.66;16.81
66726;HTU21D;53638;51.062;5.804;2023-06-14T14:16:54;47.49;16.90
66726;HTU21D;53638;51.062;5.804;2023-06-14T14:19:21;47.66;16.68
66726;HTU21D;53638;51.062;5.804;2023-06-14T14:21:47;48.34;16.41
66726;HTU21D;53638;51.062;5.804;2023-06-14T14:24:13;48.90;16.20
66726;HTU21D;53638;51.062;5.804;2023-06-14T14:26:39;49.01;16.38
66726;HTU21D;53638;51.062;5.804;2023-06-14T14:29:06;48.40;16.45
66726;HTU21D;53638;51.062;5.804;2023-06-14T14:31:32;48.44;16.77
66726;HTU21D;53638;51.062;5.804;2023-06-14T14:33:57;48.61;16.47
66726;HTU21D;53638;51.062;5.804;2023-06-14T14:36:23;49.03;16.50
66726;HTU21D;53638;51.062;5.804;2023-06-14T14:38:49;48.61;16.54
66726;HTU21D;53638;51.062;5.804;2023-06-14T14:41:17;48.46;16.67
66726;HTU21D;53638;51.062;5.804;2023-06-14T14:43:43;48.52;16.77
66726;HTU21D;53638;51.062;5.804;2023-06-14T14:46:09;49.02;16.48
66726;HTU21D;53638;51.062;5.804;2023-06-14T14:48:36;49.50;16.38
66726;HTU21D;53638;51.062;5.804;2023-06-14T14:51:02;49.21;16.45
66726;HTU21D;53638;51.062;5.804;2023-06-14T14:53:28;48.83;16.72
66726;HTU21D;53638;51.062;5.804;2023-06-14T14:55:54;48.25;17.05
66726;HTU21D;53638;51.062;5.804;2023-06-14T14:58:20;48.03;17.37
66726;HTU21D;53638;51.062;5.804;2023-06-14T15:00:47;48.22;17.41
66726;HTU21D;53638;51.062;5.804;2023-06-14T15:03:14;48.51;17.19
66726;HTU21D;53638;51.062;5.804;2023-06-14T15:05:40;48.73;17.11
66726;HTU21D;53638;51.062;5.804;2023-06-14T15:08:06;48.85;17.28
66726;HTU21D;53638;51.062;5.804;2023-06-14T15:10:38;48.58;17.33
66726;HTU21D;53638;51.062;5.804;2023-06-14T15:13:06;48.19;17.18
66726;HTU21D;53638;51.062;5.804;2023-06-14T15:15:34;47.69;17.54
66726;HTU21D;53638;51.062;5.804;2023-06-14T15:18:00;47.50;17.86
66726;HTU21D;53638;51.062;5.804;2023-06-14T15:20:26;47.47;17.76
66726;HTU21D;53638;51.062;5.804;2023-06-14T15:22:53;47.41;17.83
66726;HTU21D;53638;51.062;5.804;2023-06-14T15:25:19;47.47;17.70
66726;HTU21D;53638;51.062;5.804;2023-06-14T15:27:46;47.96;17.79